sensor_id;sensor_type;location;lat;lon;timestamp;P1;durP1;ratioP1;P2;durP2;ratioP2
75156;SDS011;63736;50.076;8.198;2023-07-31T00:00:04;696.87;;;161.73;;
75156;SDS011;63736;50.076;8.198;2023-07-31T00:02:30;700.00;;;163.63;;
75156;SDS011;63736;50.076;8.198;2023-07-31T00:04:55;700.97;;;163.47;;
75156;SDS011;63736;50.076;8.198;2023-07-31T00:07:21;702.60;;;163.83;;
75156;SDS011;63736;50.076;8.198;2023-07-31T00:09:46;707.23;;;164.97;;
75156;SDS011;63736;50.076;8.198;2023-07-31T00:12:11;710.10;;;166.10;;
75156;SDS011;63736;50.076;8.198;2023-07-31T00:14:36;713.57;;;168.13;;
75156;SDS011;63736;50.076;8.198;2023-07-31T00:17:02;710.57;;;167.33;;
75156;SDS011;63736;50.076;8.198;2023-07-31T00:19:27;705.10;;;164.32;;
75156;SDS011;63736;50.076;8.198;2023-07-31T00:21:52;704.30;;;164.23;;
75156;SDS011;63736;50.076;8.198;2023-07-31T00:24:18;704.77;;;163.83;;
75156;SDS011;63736;50.076;8.198;2023-07-31T00:26:43;710.57;;;165.43;;
75156;SDS011;63736;50.076;8.198;2023-07-31T00:29:08;712.60;;;167.17;;
75156;SDS011;63736;50.076;8.198;2023-07-31T00:31:33;715.37;;;168.23;;
75156;SDS011;63736;50.076;8.198;2023-07-31T00:33:59;715.07;;;167.23;;
75156;SDS011;63736;50.076;8.198;2023-07-31T00:36:24;718.37;;;168.43;;
75156;SDS011;63736;50.076;8.198;2023-07-31T00:38:49;722.03;;;170.13;;
75156;SDS011;63736;50.076;8.198;2023-07-31T00:41:14;726.67;;;170.20;;
75156;SDS011;63736;50.076;8.198;2023-07-31T00:43:40;731.93;;;171.47;;
75156;SDS011;63736;50.076;8.198;2023-07-31T00:46:05;735.33;;;173.10;;
75156;SDS011;63736;50.076;8.198;2023-07-31T00:48:31;733.17;;;171.63;;
75156;SDS011;63736;50.076;8.198;2023-07-31T00:50:57;730.63;;;171.43;;
75156;SDS011;63736;50.076;8.198;2023-07-31T00:53:22;733.30;;;173.17;;
75156;SDS011;63736;50.076;8.198;2023-07-31T00:55:49;731.30;;;172.15;;
75156;SDS011;63736;50.076;8.198;2023-07-31T00:58:15;733.00;;;174.25;;
75156;SDS011;63736;50.076;8.198;2023-07-31T01:00:40;732.90;;;173.57;;
75156;SDS011;63736;50.076;8.198;2023-07-31T01:03:06;732.67;;;173.53;;
75156;SDS011;63736;50.076;8.198;2023-07-31T01:05:56;731.67;;;172.27;;
75156;SDS011;63736;50.076;8.198;2023-07-31T01:08:48;735.63;;;173.75;;
75156;SDS011;63736;50.076;8.198;2023-07-31T01:11:25;737.72;;;174.82;;
75156;SDS011;63736;50.076;8.198;2023-07-31T01:13:54;734.42;;;173.20;;
75156;SDS011;63736;50.076;8.198;2023-07-31T01:16:20;733.60;;;173.00;;
75156;SDS011;63736;50.076;8.198;2023-07-31T01:18:45;732.57;;;172.60;;
75156;SDS011;63736;50.076;8.198;2023-07-31T01:27:06;734.42;;;173.50;;
75156;SDS011;63736;50.076;8.198;2023-07-31T01:32:27;730.72;;;172.15;;
75156;SDS011;63736;50.076;8.198;2023-07-31T01:34:53;729.75;;;172.35;;
75156;SDS011;63736;50.076;8.198;2023-07-31T01:37:19;726.70;;;170.67;;
75156;SDS011;63736;50.076;8.198;2023-07-31T01:39:45;727.10;;;170.88;;
75156;SDS011;63736;50.076;8.198;2023-07-31T01:42:10;727.43;;;171.60;;
75156;SDS011;63736;50.076;8.198;2023-07-31T01:44:35;729.03;;;172.07;;
75156;SDS011;63736;50.076;8.198;2023-07-31T01:47:01;727.00;;;171.73;;
75156;SDS011;63736;50.076;8.198;2023-07-31T01:49:26;727.53;;;171.73;;
75156;SDS011;63736;50.076;8.198;2023-07-31T01:51:52;727.30;;;172.35;;
75156;SDS011;63736;50.076;8.198;2023-07-31T01:54:17;726.20;;;171.13;;
75156;SDS011;63736;50.076;8.198;2023-07-31T01:56:42;726.77;;;171.50;;
75156;SDS011;63736;50.076;8.198;2023-07-31T01:59:07;726.43;;;171.30;;
75156;SDS011;63736;50.076;8.198;2023-07-31T02:01:33;726.33;;;171.33;;
75156;SDS011;63736;50.076;8.198;2023-07-31T02:03:58;726.63;;;171.47;;
75156;SDS011;63736;50.076;8.198;2023-07-31T02:06:23;726.60;;;171.57;;
75156;SDS011;63736;50.076;8.198;2023-07-31T02:08:49;726.60;;;171.40;;
75156;SDS011;63736;50.076;8.198;2023-07-31T02:11:14;724.28;;;170.23;;
75156;SDS011;63736;50.076;8.198;2023-07-31T02:13:39;725.90;;;171.43;;
75156;SDS011;63736;50.076;8.198;2023-07-31T02:16:05;724.17;;;170.60;;
75156;SDS011;63736;50.076;8.198;2023-07-31T02:18:30;726.67;;;171.07;;
75156;SDS011;63736;50.076;8.198;2023-07-31T02:20:55;724.47;;;171.40;;
75156;SDS011;63736;50.076;8.198;2023-07-31T02:23:21;723.65;;;170.80;;
75156;SDS011;63736;50.076;8.198;2023-07-31T02:25:46;723.07;;;170.70;;
75156;SDS011;63736;50.076;8.198;2023-07-31T02:28:12;724.30;;;170.80;;
75156;SDS011;63736;50.076;8.198;2023-07-31T02:30:37;724.80;;;171.50;;
75156;SDS011;63736;50.076;8.198;2023-07-31T02:33:03;723.95;;;170.60;;
75156;SDS011;63736;50.076;8.198;2023-07-31T02:35:29;724.25;;;170.35;;
75156;SDS011;63736;50.076;8.198;2023-07-31T02:37:54;724.33;;;171.27;;
75156;SDS011;63736;50.076;8.198;2023-07-31T02:40:20;725.33;;;170.90;;
75156;SDS011;63736;50.076;8.198;2023-07-31T02:42:45;724.60;;;171.00;;
75156;SDS011;63736;50.076;8.198;2023-07-31T02:45:10;724.33;;;170.63;;
75156;SDS011;63736;50.076;8.198;2023-07-31T02:47:35;725.53;;;171.50;;
75156;SDS011;63736;50.076;8.198;2023-07-31T02:50:02;726.40;;;172.50;;
75156;SDS011;63736;50.076;8.198;2023-07-31T02:52:28;723.95;;;171.02;;
75156;SDS011;63736;50.076;8.198;2023-07-31T02:54:53;725.27;;;171.20;;
75156;SDS011;63736;50.076;8.198;2023-07-31T02:57:18;724.40;;;170.83;;
75156;SDS011;63736;50.076;8.198;2023-07-31T02:59:44;722.07;;;170.33;;
75156;SDS011;63736;50.076;8.198;2023-07-31T03:02:09;723.27;;;170.13;;
75156;SDS011;63736;50.076;8.198;2023-07-31T03:04:34;722.90;;;170.83;;
75156;SDS011;63736;50.076;8.198;2023-07-31T03:06:59;724.47;;;172.23;;
75156;SDS011;63736;50.076;8.198;2023-07-31T03:09:25;723.30;;;170.73;;
75156;SDS011;63736;50.076;8.198;2023-07-31T03:11:50;723.67;;;170.17;;
75156;SDS011;63736;50.076;8.198;2023-07-31T03:14:16;722.78;;;169.38;;
75156;SDS011;63736;50.076;8.198;2023-07-31T03:16:41;725.03;;;171.10;;
75156;SDS011;63736;50.076;8.198;2023-07-31T03:19:06;729.20;;;170.53;;
75156;SDS011;63736;50.076;8.198;2023-07-31T03:21:31;725.43;;;171.93;;
75156;SDS011;63736;50.076;8.198;2023-07-31T03:23:57;725.10;;;170.60;;
75156;SDS011;63736;50.076;8.198;2023-07-31T03:26:22;725.90;;;171.90;;
75156;SDS011;63736;50.076;8.198;2023-07-31T03:28:47;725.83;;;171.80;;
75156;SDS011;63736;50.076;8.198;2023-07-31T03:31:14;727.63;;;172.93;;
75156;SDS011;63736;50.076;8.198;2023-07-31T03:33:39;725.60;;;171.13;;
75156;SDS011;63736;50.076;8.198;2023-07-31T03:36:05;727.57;;;172.53;;
75156;SDS011;63736;50.076;8.198;2023-07-31T03:38:31;726.90;;;171.50;;
75156;SDS011;63736;50.076;8.198;2023-07-31T03:40:56;725.80;;;171.63;;
75156;SDS011;63736;50.076;8.198;2023-07-31T03:43:23;725.40;;;172.63;;
75156;SDS011;63736;50.076;8.198;2023-07-31T03:45:49;724.17;;;171.27;;
75156;SDS011;63736;50.076;8.198;2023-07-31T03:48:15;722.40;;;170.17;;
75156;SDS011;63736;50.076;8.198;2023-07-31T03:50:41;723.42;;;170.90;;
75156;SDS011;63736;50.076;8.198;2023-07-31T03:53:06;722.80;;;170.57;;
75156;SDS011;63736;50.076;8.198;2023-07-31T03:55:31;723.70;;;170.47;;
75156;SDS011;63736;50.076;8.198;2023-07-31T03:57:57;724.57;;;171.20;;
75156;SDS011;63736;50.076;8.198;2023-07-31T04:00:22;724.47;;;171.53;;
75156;SDS011;63736;50.076;8.198;2023-07-31T04:02:47;727.27;;;172.00;;
75156;SDS011;63736;50.076;8.198;2023-07-31T04:05:13;722.30;;;169.83;;
75156;SDS011;63736;50.076;8.198;2023-07-31T04:07:38;723.90;;;170.37;;
75156;SDS011;63736;50.076;8.198;2023-07-31T04:10:03;722.73;;;170.57;;
75156;SDS011;63736;50.076;8.198;2023-07-31T04:12:29;723.13;;;170.50;;
75156;SDS011;63736;50.076;8.198;2023-07-31T04:14:54;722.83;;;169.90;;
75156;SDS011;63736;50.076;8.198;2023-07-31T04:17:20;721.83;;;169.60;;
75156;SDS011;63736;50.076;8.198;2023-07-31T04:19:45;723.90;;;170.63;;
75156;SDS011;63736;50.076;8.198;2023-07-31T04:22:10;723.43;;;171.27;;
75156;SDS011;63736;50.076;8.198;2023-07-31T04:24:35;724.37;;;172.10;;
75156;SDS011;63736;50.076;8.198;2023-07-31T04:27:01;721.27;;;169.40;;
75156;SDS011;63736;50.076;8.198;2023-07-31T04:29:26;721.27;;;170.27;;
75156;SDS011;63736;50.076;8.198;2023-07-31T04:31:51;720.27;;;168.80;;
75156;SDS011;63736;50.076;8.198;2023-07-31T04:34:17;721.75;;;169.52;;
75156;SDS011;63736;50.076;8.198;2023-07-31T04:36:42;722.77;;;169.80;;
75156;SDS011;63736;50.076;8.198;2023-07-31T04:39:07;720.30;;;169.17;;
75156;SDS011;63736;50.076;8.198;2023-07-31T04:41:33;723.37;;;171.10;;
75156;SDS011;63736;50.076;8.198;2023-07-31T04:43:58;722.53;;;170.57;;
75156;SDS011;63736;50.076;8.198;2023-07-31T04:46:23;720.70;;;170.03;;
75156;SDS011;63736;50.076;8.198;2023-07-31T04:48:49;722.73;;;170.30;;
75156;SDS011;63736;50.076;8.198;2023-07-31T04:51:14;726.27;;;171.80;;
75156;SDS011;63736;50.076;8.198;2023-07-31T04:53:39;721.33;;;169.13;;
75156;SDS011;63736;50.076;8.198;2023-07-31T04:56:04;720.50;;;168.88;;
75156;SDS011;63736;50.076;8.198;2023-07-31T04:58:30;721.17;;;169.47;;
75156;SDS011;63736;50.076;8.198;2023-07-31T05:00:55;720.67;;;169.73;;
75156;SDS011;63736;50.076;8.198;2023-07-31T05:03:20;721.03;;;169.87;;
75156;SDS011;63736;50.076;8.198;2023-07-31T05:05:46;720.70;;;169.77;;
75156;SDS011;63736;50.076;8.198;2023-07-31T05:08:12;722.03;;;171.38;;
75156;SDS011;63736;50.076;8.198;2023-07-31T05:10:37;721.23;;;170.67;;
75156;SDS011;63736;50.076;8.198;2023-07-31T05:13:03;722.87;;;170.63;;
75156;SDS011;63736;50.076;8.198;2023-07-31T05:15:28;722.30;;;171.63;;
75156;SDS011;63736;50.076;8.198;2023-07-31T05:17:54;720.78;;;169.30;;
75156;SDS011;63736;50.076;8.198;2023-07-31T05:20:20;719.60;;;169.57;;
75156;SDS011;63736;50.076;8.198;2023-07-31T05:22:45;721.17;;;170.07;;
75156;SDS011;63736;50.076;8.198;2023-07-31T05:25:11;720.40;;;170.27;;
75156;SDS011;63736;50.076;8.198;2023-07-31T05:27:36;718.37;;;170.03;;
75156;SDS011;63736;50.076;8.198;2023-07-31T05:30:01;721.50;;;170.90;;
75156;SDS011;63736;50.076;8.198;2023-07-31T05:32:27;719.28;;;169.35;;
75156;SDS011;63736;50.076;8.198;2023-07-31T05:34:52;717.93;;;168.07;;
75156;SDS011;63736;50.076;8.198;2023-07-31T05:37:18;718.83;;;169.40;;
75156;SDS011;63736;50.076;8.198;2023-07-31T05:39:43;717.90;;;167.80;;
75156;SDS011;63736;50.076;8.198;2023-07-31T05:42:09;720.07;;;170.10;;
75156;SDS011;63736;50.076;8.198;2023-07-31T05:44:34;719.93;;;169.47;;
75156;SDS011;63736;50.076;8.198;2023-07-31T05:46:59;723.17;;;170.43;;
75156;SDS011;63736;50.076;8.198;2023-07-31T05:49:25;719.80;;;169.37;;
75156;SDS011;63736;50.076;8.198;2023-07-31T05:51:50;719.10;;;168.50;;
75156;SDS011;63736;50.076;8.198;2023-07-31T05:54:15;723.73;;;170.63;;
75156;SDS011;63736;50.076;8.198;2023-07-31T05:56:41;730.27;;;172.27;;
75156;SDS011;63736;50.076;8.198;2023-07-31T05:59:06;757.73;;;178.33;;
75156;SDS011;63736;50.076;8.198;2023-07-31T06:01:31;813.63;;;192.53;;
75156;SDS011;63736;50.076;8.198;2023-07-31T06:03:57;818.57;;;193.93;;
75156;SDS011;63736;50.076;8.198;2023-07-31T06:06:22;829.40;;;195.83;;
75156;SDS011;63736;50.076;8.198;2023-07-31T06:08:47;838.43;;;197.57;;
75156;SDS011;63736;50.076;8.198;2023-07-31T06:11:12;832.87;;;197.00;;
75156;SDS011;63736;50.076;8.198;2023-07-31T06:13:38;835.90;;;197.83;;
75156;SDS011;63736;50.076;8.198;2023-07-31T06:16:03;834.50;;;196.77;;
75156;SDS011;63736;50.076;8.198;2023-07-31T06:18:31;844.38;;;200.32;;
75156;SDS011;63736;50.076;8.198;2023-07-31T06:20:57;839.95;;;198.15;;
75156;SDS011;63736;50.076;8.198;2023-07-31T06:23:23;844.40;;;199.43;;
75156;SDS011;63736;50.076;8.198;2023-07-31T06:25:48;849.43;;;200.73;;
75156;SDS011;63736;50.076;8.198;2023-07-31T06:28:13;847.57;;;201.37;;
75156;SDS011;63736;50.076;8.198;2023-07-31T06:30:39;835.40;;;197.50;;
75156;SDS011;63736;50.076;8.198;2023-07-31T06:33:04;828.53;;;197.00;;
75156;SDS011;63736;50.076;8.198;2023-07-31T06:35:29;822.17;;;193.27;;
75156;SDS011;63736;50.076;8.198;2023-07-31T06:37:55;823.97;;;194.30;;
75156;SDS011;63736;50.076;8.198;2023-07-31T06:40:20;858.00;;;202.87;;
75156;SDS011;63736;50.076;8.198;2023-07-31T06:42:46;885.22;;;209.88;;
75156;SDS011;63736;50.076;8.198;2023-07-31T06:45:12;1112.73;;;270.93;;
75156;SDS011;63736;50.076;8.198;2023-07-31T06:47:37;939.00;;;221.80;;
75156;SDS011;63736;50.076;8.198;2023-07-31T06:50:02;920.37;;;217.80;;
75156;SDS011;63736;50.076;8.198;2023-07-31T06:52:28;892.50;;;212.00;;
75156;SDS011;63736;50.076;8.198;2023-07-31T06:55:03;869.92;;;204.65;;
75156;SDS011;63736;50.076;8.198;2023-07-31T06:57:40;864.27;;;203.63;;
75156;SDS011;63736;50.076;8.198;2023-07-31T07:00:06;858.57;;;202.27;;
75156;SDS011;63736;50.076;8.198;2023-07-31T07:02:31;855.38;;;202.07;;
75156;SDS011;63736;50.076;8.198;2023-07-31T07:04:57;880.90;;;208.33;;
75156;SDS011;63736;50.076;8.198;2023-07-31T07:07:22;1096.53;;;263.13;;
75156;SDS011;63736;50.076;8.198;2023-07-31T07:09:47;775.27;;;183.47;;
75156;SDS011;63736;50.076;8.198;2023-07-31T07:12:13;697.73;;;163.93;;
75156;SDS011;63736;50.076;8.198;2023-07-31T07:14:38;650.27;;;154.60;;
75156;SDS011;63736;50.076;8.198;2023-07-31T07:17:03;627.23;;;150.87;;
75156;SDS011;63736;50.076;8.198;2023-07-31T07:19:29;619.93;;;149.53;;
75156;SDS011;63736;50.076;8.198;2023-07-31T07:21:54;608.70;;;148.60;;
75156;SDS011;63736;50.076;8.198;2023-07-31T07:24:19;591.80;;;144.23;;
75156;SDS011;63736;50.076;8.198;2023-07-31T07:26:45;579.57;;;142.30;;
75156;SDS011;63736;50.076;8.198;2023-07-31T07:29:10;577.57;;;142.07;;
75156;SDS011;63736;50.076;8.198;2023-07-31T07:31:35;572.50;;;141.07;;
75156;SDS011;63736;50.076;8.198;2023-07-31T07:34:01;571.87;;;141.33;;
75156;SDS011;63736;50.076;8.198;2023-07-31T07:36:27;576.65;;;141.60;;
75156;SDS011;63736;50.076;8.198;2023-07-31T07:38:53;575.72;;;142.43;;
75156;SDS011;63736;50.076;8.198;2023-07-31T07:41:18;576.70;;;140.70;;
75156;SDS011;63736;50.076;8.198;2023-07-31T07:43:43;580.47;;;141.60;;
75156;SDS011;63736;50.076;8.198;2023-07-31T07:46:09;591.17;;;143.47;;
75156;SDS011;63736;50.076;8.198;2023-07-31T07:48:34;649.33;;;153.17;;
75156;SDS011;63736;50.076;8.198;2023-07-31T07:50:59;704.87;;;165.77;;
75156;SDS011;63736;50.076;8.198;2023-07-31T07:53:24;761.17;;;179.67;;
75156;SDS011;63736;50.076;8.198;2023-07-31T07:55:50;728.63;;;171.03;;
75156;SDS011;63736;50.076;8.198;2023-07-31T07:58:15;735.50;;;171.53;;
75156;SDS011;63736;50.076;8.198;2023-07-31T08:00:40;759.67;;;177.17;;
75156;SDS011;63736;50.076;8.198;2023-07-31T08:03:05;830.37;;;195.23;;
75156;SDS011;63736;50.076;8.198;2023-07-31T08:05:31;834.97;;;196.73;;
75156;SDS011;63736;50.076;8.198;2023-07-31T08:07:59;830.60;;;195.15;;
75156;SDS011;63736;50.076;8.198;2023-07-31T08:10:24;832.43;;;196.70;;
75156;SDS011;63736;50.076;8.198;2023-07-31T08:12:49;830.30;;;195.17;;
75156;SDS011;63736;50.076;8.198;2023-07-31T08:15:15;825.20;;;195.10;;
75156;SDS011;63736;50.076;8.198;2023-07-31T08:17:40;826.77;;;195.63;;
75156;SDS011;63736;50.076;8.198;2023-07-31T08:20:05;829.10;;;195.83;;
75156;SDS011;63736;50.076;8.198;2023-07-31T08:22:31;830.97;;;195.65;;
75156;SDS011;63736;50.076;8.198;2023-07-31T08:24:57;829.40;;;197.00;;
75156;SDS011;63736;50.076;8.198;2023-07-31T08:27:22;824.47;;;194.03;;
75156;SDS011;63736;50.076;8.198;2023-07-31T08:29:47;826.60;;;194.40;;
75156;SDS011;63736;50.076;8.198;2023-07-31T08:32:12;820.63;;;194.00;;
75156;SDS011;63736;50.076;8.198;2023-07-31T08:34:38;819.27;;;192.73;;
75156;SDS011;63736;50.076;8.198;2023-07-31T08:37:03;813.47;;;192.20;;
75156;SDS011;63736;50.076;8.198;2023-07-31T08:39:28;811.67;;;191.13;;
75156;SDS011;63736;50.076;8.198;2023-07-31T08:41:57;810.60;;;192.17;;
75156;SDS011;63736;50.076;8.198;2023-07-31T08:44:24;813.97;;;193.18;;
75156;SDS011;63736;50.076;8.198;2023-07-31T08:46:50;810.27;;;191.60;;
75156;SDS011;63736;50.076;8.198;2023-07-31T08:49:16;809.10;;;191.25;;
75156;SDS011;63736;50.076;8.198;2023-07-31T08:51:42;804.40;;;190.27;;
75156;SDS011;63736;50.076;8.198;2023-07-31T08:54:08;802.90;;;189.30;;
75156;SDS011;63736;50.076;8.198;2023-07-31T08:56:33;802.67;;;190.33;;
75156;SDS011;63736;50.076;8.198;2023-07-31T08:59:01;804.78;;;189.85;;
75156;SDS011;63736;50.076;8.198;2023-07-31T09:01:29;804.58;;;190.27;;
75156;SDS011;63736;50.076;8.198;2023-07-31T09:03:59;806.15;;;190.15;;
75156;SDS011;63736;50.076;8.198;2023-07-31T09:06:26;808.10;;;191.38;;
75156;SDS011;63736;50.076;8.198;2023-07-31T09:08:54;809.87;;;191.40;;
75156;SDS011;63736;50.076;8.198;2023-07-31T09:11:20;809.10;;;190.47;;
75156;SDS011;63736;50.076;8.198;2023-07-31T09:13:46;806.95;;;189.82;;
75156;SDS011;63736;50.076;8.198;2023-07-31T09:16:13;807.25;;;191.13;;
75156;SDS011;63736;50.076;8.198;2023-07-31T09:18:52;804.10;;;190.77;;
75156;SDS011;63736;50.076;8.198;2023-07-31T09:21:19;802.03;;;190.65;;
75156;SDS011;63736;50.076;8.198;2023-07-31T09:23:45;796.57;;;187.97;;
75156;SDS011;63736;50.076;8.198;2023-07-31T09:26:28;794.58;;;187.80;;
75156;SDS011;63736;50.076;8.198;2023-07-31T09:28:55;792.00;;;187.02;;
75156;SDS011;63736;50.076;8.198;2023-07-31T09:31:33;789.90;;;186.67;;
75156;SDS011;63736;50.076;8.198;2023-07-31T09:34:04;791.30;;;186.68;;
75156;SDS011;63736;50.076;8.198;2023-07-31T09:36:29;788.37;;;185.27;;
75156;SDS011;63736;50.076;8.198;2023-07-31T09:38:56;788.88;;;186.52;;
75156;SDS011;63736;50.076;8.198;2023-07-31T09:41:26;788.70;;;185.73;;
75156;SDS011;63736;50.076;8.198;2023-07-31T09:43:55;787.17;;;185.43;;
75156;SDS011;63736;50.076;8.198;2023-07-31T09:46:20;790.70;;;187.15;;
75156;SDS011;63736;50.076;8.198;2023-07-31T09:48:47;790.05;;;188.13;;
75156;SDS011;63736;50.076;8.198;2023-07-31T09:51:12;788.50;;;188.02;;
75156;SDS011;63736;50.076;8.198;2023-07-31T09:53:38;787.77;;;186.50;;
75156;SDS011;63736;50.076;8.198;2023-07-31T09:56:03;789.63;;;186.90;;
75156;SDS011;63736;50.076;8.198;2023-07-31T09:58:29;795.13;;;188.43;;
75156;SDS011;63736;50.076;8.198;2023-07-31T10:00:54;794.25;;;187.50;;
75156;SDS011;63736;50.076;8.198;2023-07-31T10:03:22;790.15;;;187.57;;
75156;SDS011;63736;50.076;8.198;2023-07-31T10:05:50;787.13;;;186.43;;
75156;SDS011;63736;50.076;8.198;2023-07-31T10:08:16;788.17;;;187.95;;
75156;SDS011;63736;50.076;8.198;2023-07-31T10:10:45;789.58;;;186.95;;
75156;SDS011;63736;50.076;8.198;2023-07-31T10:13:11;787.30;;;187.27;;
75156;SDS011;63736;50.076;8.198;2023-07-31T10:15:37;788.83;;;186.50;;
75156;SDS011;63736;50.076;8.198;2023-07-31T10:18:05;793.50;;;188.00;;
75156;SDS011;63736;50.076;8.198;2023-07-31T10:20:31;792.67;;;187.80;;
75156;SDS011;63736;50.076;8.198;2023-07-31T10:22:56;818.30;;;192.82;;
75156;SDS011;63736;50.076;8.198;2023-07-31T10:25:22;876.53;;;205.77;;
75156;SDS011;63736;50.076;8.198;2023-07-31T10:27:49;968.45;;;231.80;;
75156;SDS011;63736;50.076;8.198;2023-07-31T10:30:15;876.85;;;208.90;;
75156;SDS011;63736;50.076;8.198;2023-07-31T10:32:43;845.88;;;201.15;;
75156;SDS011;63736;50.076;8.198;2023-07-31T10:35:09;839.67;;;198.85;;
75156;SDS011;63736;50.076;8.198;2023-07-31T10:37:37;834.63;;;198.00;;
75156;SDS011;63736;50.076;8.198;2023-07-31T10:44:59;861.50;;;203.75;;
75156;SDS011;63736;50.076;8.198;2023-07-31T10:47:26;874.87;;;205.97;;
75156;SDS011;63736;50.076;8.198;2023-07-31T10:49:52;875.10;;;206.10;;
75156;SDS011;63736;50.076;8.198;2023-07-31T10:52:21;873.53;;;206.80;;
75156;SDS011;63736;50.076;8.198;2023-07-31T10:54:48;877.47;;;207.88;;
75156;SDS011;63736;50.076;8.198;2023-07-31T10:57:21;878.75;;;208.05;;
75156;SDS011;63736;50.076;8.198;2023-07-31T10:59:47;922.03;;;216.93;;
75156;SDS011;63736;50.076;8.198;2023-07-31T11:02:26;1198.53;;;288.90;;
75156;SDS011;63736;50.076;8.198;2023-07-31T11:05:07;1240.35;;;299.13;;
75156;SDS011;63736;50.076;8.198;2023-07-31T11:07:50;1229.63;;;295.65;;
75156;SDS011;63736;50.076;8.198;2023-07-31T11:10:16;1219.03;;;294.17;;
75156;SDS011;63736;50.076;8.198;2023-07-31T11:12:43;1222.10;;;296.00;;
75156;SDS011;63736;50.076;8.198;2023-07-31T11:15:10;1231.53;;;297.83;;
75156;SDS011;63736;50.076;8.198;2023-07-31T11:17:38;1218.68;;;295.52;;
75156;SDS011;63736;50.076;8.198;2023-07-31T11:20:05;1196.10;;;287.90;;
75156;SDS011;63736;50.076;8.198;2023-07-31T11:22:32;1188.47;;;288.33;;
75156;SDS011;63736;50.076;8.198;2023-07-31T11:24:59;1176.40;;;283.60;;
75156;SDS011;63736;50.076;8.198;2023-07-31T11:27:27;1171.97;;;282.63;;
75156;SDS011;63736;50.076;8.198;2023-07-31T11:29:53;1162.93;;;280.50;;
75156;SDS011;63736;50.076;8.198;2023-07-31T11:32:25;1158.40;;;280.15;;
75156;SDS011;63736;50.076;8.198;2023-07-31T11:34:51;1151.00;;;277.37;;
75156;SDS011;63736;50.076;8.198;2023-07-31T11:37:18;1177.03;;;283.67;;
75156;SDS011;63736;50.076;8.198;2023-07-31T11:39:43;1188.40;;;287.47;;
75156;SDS011;63736;50.076;8.198;2023-07-31T11:42:08;1174.00;;;284.17;;
75156;SDS011;63736;50.076;8.198;2023-07-31T11:44:38;1161.75;;;280.33;;
75156;SDS011;63736;50.076;8.198;2023-07-31T11:47:06;1004.20;;;240.38;;
75156;SDS011;63736;50.076;8.198;2023-07-31T11:49:31;873.83;;;210.37;;
75156;SDS011;63736;50.076;8.198;2023-07-31T11:51:57;840.30;;;202.37;;
75156;SDS011;63736;50.076;8.198;2023-07-31T11:54:22;821.60;;;196.47;;
75156;SDS011;63736;50.076;8.198;2023-07-31T11:56:47;807.65;;;193.35;;
75156;SDS011;63736;50.076;8.198;2023-07-31T11:59:14;790.65;;;189.80;;
75156;SDS011;63736;50.076;8.198;2023-07-31T12:01:40;784.40;;;188.17;;
75156;SDS011;63736;50.076;8.198;2023-07-31T12:04:05;779.17;;;187.70;;
75156;SDS011;63736;50.076;8.198;2023-07-31T12:06:34;775.10;;;187.20;;
75156;SDS011;63736;50.076;8.198;2023-07-31T12:09:01;770.28;;;184.75;;
75156;SDS011;63736;50.076;8.198;2023-07-31T12:11:30;773.90;;;187.43;;
75156;SDS011;63736;50.076;8.198;2023-07-31T12:13:55;769.13;;;185.53;;
75156;SDS011;63736;50.076;8.198;2023-07-31T12:16:20;768.00;;;184.27;;
75156;SDS011;63736;50.076;8.198;2023-07-31T12:18:50;768.25;;;184.45;;
75156;SDS011;63736;50.076;8.198;2023-07-31T12:21:16;766.47;;;185.77;;
75156;SDS011;63736;50.076;8.198;2023-07-31T12:23:41;766.40;;;183.37;;
75156;SDS011;63736;50.076;8.198;2023-07-31T12:26:10;766.00;;;183.85;;
75156;SDS011;63736;50.076;8.198;2023-07-31T12:28:46;764.92;;;185.13;;
75156;SDS011;63736;50.076;8.198;2023-07-31T12:31:22;764.78;;;184.15;;
75156;SDS011;63736;50.076;8.198;2023-07-31T12:33:49;762.53;;;182.90;;
75156;SDS011;63736;50.076;8.198;2023-07-31T12:36:16;760.70;;;182.20;;
75156;SDS011;63736;50.076;8.198;2023-07-31T12:38:43;754.60;;;180.82;;
75156;SDS011;63736;50.076;8.198;2023-07-31T12:41:09;751.20;;;181.13;;
75156;SDS011;63736;50.076;8.198;2023-07-31T12:43:36;746.83;;;179.90;;
75156;SDS011;63736;50.076;8.198;2023-07-31T12:46:02;743.90;;;178.75;;
75156;SDS011;63736;50.076;8.198;2023-07-31T12:48:29;744.30;;;178.90;;
75156;SDS011;63736;50.076;8.198;2023-07-31T12:50:54;740.25;;;177.15;;
75156;SDS011;63736;50.076;8.198;2023-07-31T12:53:19;740.17;;;177.63;;
75156;SDS011;63736;50.076;8.198;2023-07-31T12:55:45;735.83;;;176.63;;
75156;SDS011;63736;50.076;8.198;2023-07-31T12:58:10;737.67;;;176.43;;
75156;SDS011;63736;50.076;8.198;2023-07-31T13:00:36;736.00;;;176.38;;
75156;SDS011;63736;50.076;8.198;2023-07-31T13:03:01;731.70;;;174.50;;
75156;SDS011;63736;50.076;8.198;2023-07-31T13:05:28;733.80;;;175.98;;
75156;SDS011;63736;50.076;8.198;2023-07-31T13:07:53;735.10;;;176.87;;
75156;SDS011;63736;50.076;8.198;2023-07-31T13:10:19;735.28;;;176.65;;
75156;SDS011;63736;50.076;8.198;2023-07-31T13:12:45;735.00;;;176.60;;
75156;SDS011;63736;50.076;8.198;2023-07-31T13:15:10;729.83;;;174.45;;
75156;SDS011;63736;50.076;8.198;2023-07-31T13:17:35;725.47;;;174.60;;
75156;SDS011;63736;50.076;8.198;2023-07-31T13:20:01;724.30;;;173.65;;
75156;SDS011;63736;50.076;8.198;2023-07-31T13:22:28;726.17;;;175.67;;
75156;SDS011;63736;50.076;8.198;2023-07-31T13:24:54;725.35;;;173.73;;
75156;SDS011;63736;50.076;8.198;2023-07-31T13:27:19;724.00;;;173.87;;
75156;SDS011;63736;50.076;8.198;2023-07-31T13:29:46;723.35;;;173.27;;
75156;SDS011;63736;50.076;8.198;2023-07-31T13:32:15;726.85;;;174.65;;
75156;SDS011;63736;50.076;8.198;2023-07-31T13:34:42;728.30;;;173.97;;
75156;SDS011;63736;50.076;8.198;2023-07-31T13:37:07;726.88;;;173.10;;
75156;SDS011;63736;50.076;8.198;2023-07-31T13:39:32;732.03;;;174.23;;
75156;SDS011;63736;50.076;8.198;2023-07-31T13:42:04;733.63;;;175.38;;
75156;SDS011;63736;50.076;8.198;2023-07-31T13:44:33;734.77;;;174.77;;
75156;SDS011;63736;50.076;8.198;2023-07-31T13:46:59;736.15;;;175.25;;
75156;SDS011;63736;50.076;8.198;2023-07-31T13:49:25;741.97;;;176.48;;
75156;SDS011;63736;50.076;8.198;2023-07-31T13:51:50;745.50;;;177.03;;
75156;SDS011;63736;50.076;8.198;2023-07-31T13:54:15;753.57;;;178.83;;
75156;SDS011;63736;50.076;8.198;2023-07-31T13:56:41;766.20;;;182.80;;
75156;SDS011;63736;50.076;8.198;2023-07-31T13:59:07;776.20;;;183.70;;
75156;SDS011;63736;50.076;8.198;2023-07-31T14:01:33;783.67;;;185.40;;
75156;SDS011;63736;50.076;8.198;2023-07-31T14:03:58;785.57;;;186.13;;